createdAt,value
2019-03-23T00:01:13.736Z,21.53
2019-03-23T00:03:41.219Z,20.50
2019-03-23T00:06:08.806Z,21.53
2019-03-23T00:08:36.369Z,21.47
2019-03-23T00:11:03.933Z,20.83
2019-03-23T00:13:31.393Z,20.97
2019-03-23T00:15:58.965Z,20.50
2019-03-23T00:18:26.437Z,21.63
2019-03-23T00:20:53.932Z,21.13
2019-03-23T00:23:21.401Z,20.83
2019-03-23T00:25:48.897Z,20.93
2019-03-23T00:28:16.374Z,20.13
2019-03-23T00:30:43.836Z,20.40
2019-03-23T00:33:11.309Z,21.27
2019-03-23T00:35:39.589Z,19.37
2019-03-23T00:38:07.040Z,19.90
2019-03-23T00:40:35.287Z,20.00
2019-03-23T00:43:03.682Z,19.53
2019-03-23T00:45:31.147Z,19.47
2019-03-23T00:47:58.629Z,19.20
2019-03-23T00:50:26.219Z,20.53
2019-03-23T00:52:54.466Z,19.23
2019-03-23T00:55:21.994Z,18.93
2019-03-23T00:57:49.450Z,18.00
2019-03-23T01:00:16.954Z,18.97
2019-03-23T01:02:44.519Z,18.70
2019-03-23T01:05:11.989Z,19.87
2019-03-23T01:07:40.266Z,19.73
2019-03-23T01:10:08.497Z,17.43
2019-03-23T01:12:35.966Z,18.83
2019-03-23T01:15:03.523Z,19.47
2019-03-23T01:17:30.999Z,18.97
2019-03-23T01:19:58.458Z,18.90
2019-03-23T01:22:25.958Z,19.17
2019-03-23T01:24:53.424Z,20.03
2019-03-23T01:27:20.978Z,20.67
2019-03-23T01:29:48.846Z,18.27
2019-03-23T01:32:16.330Z,19.83
2019-03-23T01:34:44.587Z,21.13
2019-03-23T01:37:12.067Z,19.03
2019-03-23T01:39:39.627Z,20.60
2019-03-23T01:42:07.098Z,20.47
2019-03-23T01:44:34.640Z,19.33
2019-03-23T01:47:02.219Z,20.63
2019-03-23T01:49:29.710Z,20.77
2019-03-23T01:51:57.174Z,20.33
2019-03-23T01:54:25.462Z,20.30
2019-03-23T01:56:52.971Z,20.60
2019-03-23T01:59:20.542Z,19.60
2019-03-23T02:01:48.102Z,20.33
2019-03-23T02:04:15.572Z,21.67
2019-03-23T02:06:43.058Z,20.37
2019-03-23T02:09:11.310Z,21.03
2019-03-23T02:11:38.821Z,22.13
2019-03-23T02:14:06.281Z,19.27
2019-03-23T02:16:33.754Z,22.97
2019-03-23T02:19:02.162Z,21.37
2019-03-23T02:21:29.656Z,20.40
2019-03-23T02:23:57.121Z,20.70
2019-03-23T02:26:24.666Z,21.40
2019-03-23T02:28:52.132Z,20.43
2019-03-23T02:31:19.610Z,20.90
2019-03-23T02:33:47.073Z,20.10
2019-03-23T02:36:14.631Z,21.57
2019-03-23T02:38:42.871Z,20.83
2019-03-23T02:41:10.345Z,21.13
2019-03-23T02:43:37.831Z,20.43
2019-03-23T02:46:05.300Z,19.80
2019-03-23T02:48:32.851Z,20.67
2019-03-23T02:51:00.308Z,21.87
2019-03-23T02:53:27.773Z,21.57
2019-03-23T02:55:55.251Z,22.20
2019-03-23T02:58:22.747Z,22.93
2019-03-23T03:00:51.723Z,21.47
2019-03-23T03:03:19.972Z,22.37
2019-03-23T03:05:47.442Z,20.50
2019-03-23T03:08:14.999Z,18.67
2019-03-23T03:10:42.487Z,21.57
2019-03-23T03:13:10.716Z,22.27
2019-03-23T03:15:38.210Z,20.27
2019-03-23T03:18:05.665Z,22.53
2019-03-23T03:20:33.141Z,21.67
2019-03-23T03:23:00.694Z,20.27
2019-03-23T03:25:28.164Z,20.13
2019-03-23T03:27:55.724Z,21.23
2019-03-23T03:30:24.055Z,19.53
2019-03-23T03:32:51.522Z,20.10
2019-03-23T03:35:19.000Z,20.13
2019-03-23T03:37:56.610Z,20.20
2019-03-23T03:40:13.959Z,19.07
2019-03-23T03:42:41.428Z,20.43
2019-03-23T03:45:08.892Z,18.20
2019-03-23T03:47:36.358Z,21.17
2019-03-23T03:50:05.483Z,20.00
2019-03-23T03:52:33.005Z,19.67
2019-03-23T03:55:00.562Z,20.57
2019-03-23T03:57:28.841Z,19.03
2019-03-23T03:59:56.307Z,18.60
2019-03-23T04:02:23.907Z,19.60
2019-03-23T04:04:52.147Z,20.60
2019-03-23T04:07:19.611Z,20.53
2019-03-23T04:09:47.071Z,19.33
2019-03-23T04:12:14.531Z,18.67
2019-03-23T04:14:42.101Z,17.80
2019-03-23T04:17:09.556Z,18.43
2019-03-23T04:19:37.127Z,18.50
2019-03-23T04:22:04.594Z,17.90
2019-03-23T04:24:32.150Z,17.77
2019-03-23T04:26:59.624Z,19.07
2019-03-23T04:29:27.173Z,18.53
2019-03-23T04:31:54.744Z,17.77
2019-03-23T04:34:22.233Z,16.87
2019-03-23T04:36:49.713Z,16.57
2019-03-23T04:39:17.189Z,17.33
2019-03-23T04:41:44.686Z,15.77
2019-03-23T04:44:12.174Z,16.30
2019-03-23T04:46:40.409Z,16.33
2019-03-23T04:49:07.881Z,16.85
2019-03-23T04:51:35.357Z,16.73
2019-03-23T04:54:03.839Z,16.20
2019-03-23T04:56:31.316Z,16.70
2019-03-23T04:58:58.798Z,17.43
2019-03-23T05:01:27.045Z,16.00
2019-03-23T05:03:54.502Z,17.97
2019-03-23T05:06:22.045Z,15.80
2019-03-23T05:08:49.552Z,17.20
2019-03-23T05:11:17.091Z,15.30
2019-03-23T05:13:44.662Z,16.13
2019-03-23T05:16:12.147Z,15.17
2019-03-23T05:18:40.422Z,17.90
2019-03-23T05:21:07.875Z,15.23
2019-03-23T05:23:35.361Z,14.73
2019-03-23T05:26:04.325Z,16.83
2019-03-23T05:28:31.789Z,15.63
2019-03-23T05:30:59.848Z,17.40
2019-03-23T05:33:27.325Z,17.13
2019-03-23T05:35:54.789Z,16.93
2019-03-23T05:38:23.018Z,15.83
2019-03-23T05:40:50.535Z,16.07
2019-03-23T05:43:18.791Z,16.93
2019-03-23T05:45:46.270Z,15.87
2019-03-23T05:48:13.745Z,16.37
2019-03-23T05:50:41.211Z,16.53
2019-03-23T05:53:09.877Z,16.73
2019-03-23T05:55:37.364Z,15.47
2019-03-23T05:58:04.826Z,16.53
2019-03-23T06:00:33.069Z,16.40
2019-03-23T06:03:00.550Z,15.60
2019-03-23T06:05:28.018Z,16.83
2019-03-23T06:07:55.525Z,16.00
2019-03-23T06:10:23.191Z,17.10
2019-03-23T06:12:50.699Z,15.67
2019-03-23T06:15:18.164Z,16.27
2019-03-23T06:17:45.638Z,16.33
2019-03-23T06:20:13.193Z,15.73
2019-03-23T06:22:40.655Z,15.20
2019-03-23T06:25:08.257Z,15.80
2019-03-23T06:27:36.499Z,15.63
2019-03-23T06:30:04.060Z,15.07
2019-03-23T06:32:31.634Z,16.27
2019-03-23T06:34:59.191Z,16.50
2019-03-23T06:37:26.708Z,17.17
2019-03-23T06:39:54.937Z,20.30
2019-03-23T06:42:22.409Z,16.97
2019-03-23T06:44:51.371Z,16.40
2019-03-23T06:47:18.847Z,14.50
2019-03-23T06:49:46.315Z,16.10
2019-03-23T06:52:14.436Z,15.67
2019-03-23T06:54:42.676Z,15.83
2019-03-23T06:57:11.677Z,15.33
2019-03-23T06:59:39.142Z,13.37
2019-03-23T07:02:06.609Z,14.63
2019-03-23T07:04:34.169Z,16.00
2019-03-23T07:07:01.718Z,15.53
2019-03-23T07:09:29.183Z,14.93
2019-03-23T07:11:56.746Z,15.17
2019-03-23T07:14:24.203Z,15.60
2019-03-23T07:16:51.766Z,14.23
2019-03-23T07:19:19.239Z,14.13
2019-03-23T07:21:46.814Z,13.80
2019-03-23T07:24:14.308Z,15.37
2019-03-23T07:26:42.353Z,13.33
2019-03-23T07:29:10.593Z,14.20
2019-03-23T07:31:38.092Z,14.83
2019-03-23T07:34:06.235Z,13.97
2019-03-23T07:36:33.522Z,13.53
2019-03-23T07:39:01.014Z,14.83
2019-03-23T07:41:29.257Z,15.00
2019-03-23T07:43:56.823Z,14.43
2019-03-23T07:46:24.273Z,14.17
2019-03-23T07:48:51.849Z,14.47
2019-03-23T07:51:19.307Z,14.30
2019-03-23T07:53:46.791Z,13.97
2019-03-23T07:56:14.341Z,14.00
2019-03-23T07:58:41.827Z,14.80
2019-03-23T08:01:10.062Z,13.97
2019-03-23T08:03:37.544Z,13.33
2019-03-23T08:06:05.008Z,13.13
2019-03-23T08:08:32.512Z,13.63
2019-03-23T08:11:00.026Z,13.10
2019-03-23T08:13:27.681Z,13.27
2019-03-23T08:15:55.875Z,13.77
2019-03-23T08:18:23.443Z,12.43
2019-03-23T08:20:51.676Z,12.73
2019-03-23T08:23:19.193Z,13.17
2019-03-23T08:25:47.457Z,12.37
2019-03-23T08:28:14.933Z,12.73
2019-03-23T08:30:42.409Z,12.53
2019-03-23T08:33:10.675Z,12.77
2019-03-23T08:35:38.237Z,12.23
2019-03-23T08:38:05.737Z,12.97
2019-03-23T08:40:35.780Z,12.40
2019-03-23T08:43:01.546Z,12.23
2019-03-23T08:45:29.020Z,11.13
2019-03-23T08:47:57.263Z,11.67
2019-03-23T08:50:24.900Z,12.00
2019-03-23T08:55:22.922Z,11.53
2019-03-23T08:57:50.563Z,11.37
2019-03-23T09:00:18.033Z,11.47
2019-03-23T09:02:45.518Z,11.23
2019-03-23T09:05:13.099Z,11.17
2019-03-23T09:07:40.580Z,10.63
2019-03-23T09:10:08.836Z,9.90
2019-03-23T09:12:36.314Z,9.43
2019-03-23T09:15:04.715Z,8.85
2019-03-23T09:17:32.949Z,9.60
2019-03-23T09:20:00.424Z,9.67
2019-03-23T09:22:28.438Z,9.90
2019-03-23T09:24:56.954Z,9.07
2019-03-23T09:27:24.144Z,7.50
2019-03-23T09:29:51.630Z,8.20
2019-03-23T09:32:19.872Z,6.20
2019-03-23T09:34:47.343Z,5.77
2019-03-23T09:37:14.948Z,5.33
2019-03-23T09:39:42.473Z,4.80
2019-03-23T09:42:09.945Z,4.40
2019-03-23T09:44:37.512Z,4.63
2019-03-23T09:47:04.985Z,4.47
2019-03-23T09:49:33.243Z,5.60
2019-03-23T09:52:00.713Z,5.27
2019-03-23T09:54:28.181Z,4.80
2019-03-23T09:56:55.734Z,5.03
2019-03-23T09:59:24.712Z,4.33
2019-03-23T10:01:52.194Z,4.47
2019-03-23T10:04:20.588Z,4.17
2019-03-23T10:06:48.847Z,4.20
2019-03-23T10:09:16.313Z,4.20
2019-03-23T10:11:44.552Z,4.27
2019-03-23T10:14:12.070Z,3.93
2019-03-23T10:16:40.317Z,4.67
2019-03-23T10:19:07.790Z,4.77
2019-03-23T10:21:35.260Z,4.90
2019-03-23T10:24:03.648Z,4.93
2019-03-23T10:26:31.153Z,4.53
2019-03-23T10:28:58.612Z,5.20
2019-03-23T10:31:26.071Z,4.13
2019-03-23T10:33:53.542Z,4.50
2019-03-23T10:36:21.007Z,3.80
2019-03-23T10:38:48.483Z,5.50
2019-03-23T10:41:15.956Z,4.53
2019-03-23T10:43:43.422Z,4.83
2019-03-23T10:46:10.886Z,4.47
2019-03-23T10:48:38.467Z,4.13
2019-03-23T10:51:05.923Z,4.37
2019-03-23T10:53:33.414Z,4.50
2019-03-23T10:56:01.645Z,4.80
2019-03-23T10:58:29.442Z,4.30
2019-03-23T11:00:56.929Z,4.03
2019-03-23T11:03:25.190Z,3.97
2019-03-23T11:05:52.754Z,4.03
2019-03-23T11:08:20.238Z,4.17
2019-03-23T11:10:48.506Z,4.33
2019-03-23T11:13:15.984Z,4.23
2019-03-23T11:15:44.229Z,5.43
2019-03-23T11:18:11.706Z,5.27
2019-03-23T11:20:39.273Z,3.80
2019-03-23T11:23:06.833Z,3.77
2019-03-23T11:25:34.299Z,3.47
2019-03-23T11:28:01.855Z,3.77
2019-03-23T11:30:29.415Z,2.87
2019-03-23T11:32:56.880Z,3.50
2019-03-23T11:35:24.355Z,3.07
2019-03-23T11:37:52.917Z,2.90
2019-03-23T11:40:20.874Z,2.60
2019-03-23T11:42:50.207Z,2.50
2019-03-23T11:45:15.880Z,2.47
2019-03-23T11:47:43.390Z,2.40
2019-03-23T11:50:10.865Z,2.63
2019-03-23T11:52:39.098Z,2.10
2019-03-23T11:55:06.596Z,2.40
2019-03-23T11:57:34.074Z,2.53
2019-03-23T12:00:02.298Z,2.07
2019-03-23T12:02:29.782Z,2.23
2019-03-23T12:04:57.244Z,2.43
2019-03-23T12:07:24.723Z,1.83
2019-03-23T12:09:52.180Z,1.90
2019-03-23T12:12:20.456Z,1.77
2019-03-23T12:14:47.946Z,1.90
2019-03-23T12:17:16.205Z,1.80
2019-03-23T12:19:43.763Z,2.67
2019-03-23T12:22:11.325Z,1.53
2019-03-23T12:24:38.798Z,1.87
2019-03-23T12:27:06.261Z,1.93
2019-03-23T12:29:33.749Z,2.07
2019-03-23T12:32:01.977Z,1.73
2019-03-23T12:34:29.446Z,2.10
2019-03-23T12:36:56.927Z,2.20
2019-03-23T12:39:24.481Z,2.10
2019-03-23T12:41:51.937Z,2.40
2019-03-23T12:44:19.510Z,2.23
2019-03-23T12:46:48.488Z,2.23
2019-03-23T12:49:14.662Z,1.90
2019-03-23T12:51:42.134Z,1.77
2019-03-23T12:54:10.364Z,2.23
2019-03-23T12:56:37.874Z,1.70
2019-03-23T12:59:06.090Z,1.70
2019-03-23T13:01:33.566Z,1.80
2019-03-23T13:04:01.045Z,1.70
2019-03-23T13:06:29.325Z,2.13
2019-03-23T13:08:56.793Z,1.67
2019-03-23T13:11:34.896Z,1.57
2019-03-23T13:13:53.269Z,1.83
2019-03-23T13:16:21.525Z,1.50
2019-03-23T13:18:48.993Z,1.90
2019-03-23T13:21:16.467Z,1.50
2019-03-23T13:23:44.021Z,2.23
2019-03-23T13:26:13.005Z,1.77
2019-03-23T13:28:40.580Z,1.63
2019-03-23T13:31:08.139Z,1.53
2019-03-23T13:33:35.614Z,1.57
2019-03-23T13:36:04.274Z,1.93
2019-03-23T13:38:31.755Z,1.83
2019-03-23T13:40:59.223Z,1.50
2019-03-23T13:43:26.885Z,1.90
2019-03-23T13:45:54.446Z,2.00
2019-03-23T13:48:22.013Z,2.93
2019-03-23T13:50:49.501Z,2.10
2019-03-23T13:53:17.729Z,2.30
2019-03-23T13:55:45.256Z,2.73
2019-03-23T13:58:13.481Z,2.30
2019-03-23T14:00:41.065Z,2.70
2019-03-23T14:03:08.527Z,2.77
2019-03-23T14:05:35.999Z,2.03
2019-03-23T14:08:04.345Z,1.70
2019-03-23T14:10:31.828Z,1.90
2019-03-23T14:12:59.291Z,1.60
2019-03-23T14:15:26.868Z,1.53
2019-03-23T14:17:54.331Z,1.70
2019-03-23T14:20:21.876Z,1.70
2019-03-23T14:22:49.369Z,2.90
2019-03-23T14:25:17.601Z,1.87
2019-03-23T14:27:45.090Z,1.77
2019-03-23T14:30:13.313Z,1.77
2019-03-23T14:32:40.824Z,1.77
2019-03-23T14:35:08.283Z,1.40
2019-03-23T14:37:35.909Z,1.53
2019-03-23T14:40:04.725Z,1.67
2019-03-23T14:42:32.216Z,1.87
2019-03-23T14:44:59.667Z,1.80
2019-03-23T14:47:27.134Z,1.57
2019-03-23T14:49:54.603Z,1.73
2019-03-23T14:52:22.084Z,2.10
2019-03-23T14:54:49.627Z,1.93
2019-03-23T14:57:17.104Z,1.97
2019-03-23T14:59:44.567Z,2.10
2019-03-23T15:02:12.023Z,1.83
2019-03-23T15:04:39.582Z,1.63
2019-03-23T15:07:07.075Z,2.37
2019-03-23T15:09:35.322Z,1.80
2019-03-23T15:12:03.801Z,1.77
2019-03-23T15:14:31.298Z,2.27
2019-03-23T15:17:00.164Z,1.53
2019-03-23T15:19:28.401Z,1.73
2019-03-23T15:21:55.897Z,2.37
2019-03-23T15:24:23.359Z,1.90
2019-03-23T15:26:52.344Z,2.37
2019-03-23T15:29:19.811Z,1.77
2019-03-23T15:31:47.283Z,2.10
2019-03-23T15:34:14.770Z,1.97
2019-03-23T15:36:43.002Z,2.27
2019-03-23T15:39:10.468Z,1.87
2019-03-23T15:41:37.954Z,2.13
2019-03-23T15:44:06.189Z,2.43
2019-03-23T15:46:33.696Z,2.70
2019-03-23T15:49:01.166Z,2.33
2019-03-23T15:51:28.726Z,3.17
2019-03-23T15:53:56.278Z,2.20
2019-03-23T15:56:23.746Z,2.67
2019-03-23T15:58:51.229Z,3.00
2019-03-23T16:01:19.480Z,2.53
2019-03-23T16:03:46.975Z,2.43
2019-03-23T16:06:15.211Z,2.33
2019-03-23T16:08:42.744Z,2.60
2019-03-23T16:11:10.206Z,2.50
2019-03-23T16:13:37.716Z,2.27
2019-03-23T16:16:05.287Z,2.67
2019-03-23T16:18:32.747Z,1.67
2019-03-23T16:21:00.231Z,2.33
2019-03-23T16:23:28.493Z,1.60
2019-03-23T16:25:56.056Z,1.87
2019-03-23T16:28:24.328Z,1.87
2019-03-23T16:30:51.900Z,1.93
2019-03-23T16:33:19.375Z,2.23
2019-03-23T16:35:46.945Z,1.83
2019-03-23T16:38:15.195Z,1.60
2019-03-23T16:40:42.658Z,2.00
2019-03-23T16:43:10.122Z,2.07
2019-03-23T16:45:37.579Z,2.63
2019-03-23T16:48:05.826Z,2.30
2019-03-23T16:50:33.309Z,1.97
2019-03-23T16:53:00.829Z,2.30
2019-03-23T16:55:29.077Z,2.00
2019-03-23T16:57:56.550Z,2.07
2019-03-23T17:00:28.719Z,1.60
2019-03-23T17:02:56.230Z,1.90
2019-03-23T17:05:23.689Z,1.70
2019-03-23T17:07:51.206Z,1.43
2019-03-23T17:10:19.467Z,1.87
2019-03-23T17:12:55.060Z,1.47
2019-03-23T17:15:15.298Z,1.50
2019-03-23T17:17:42.763Z,1.53
2019-03-23T17:20:11.015Z,1.97
2019-03-23T17:22:38.526Z,1.80
2019-03-23T17:25:06.007Z,2.10
2019-03-23T17:27:34.229Z,2.30
2019-03-23T17:30:01.713Z,1.97
2019-03-23T17:32:29.169Z,2.47
2019-03-23T17:34:56.654Z,2.00
2019-03-23T17:37:24.133Z,1.93
2019-03-23T17:39:52.407Z,1.60
2019-03-23T17:42:19.949Z,2.10
2019-03-23T17:44:47.422Z,2.23
2019-03-23T17:47:14.891Z,2.22
2019-03-23T17:49:43.199Z,2.90
2019-03-23T17:52:10.805Z,2.30
2019-03-23T17:54:38.523Z,2.43
2019-03-23T17:57:06.027Z,1.80
2019-03-23T17:59:33.490Z,2.37
2019-03-23T18:02:01.794Z,2.00
2019-03-23T18:04:29.281Z,2.17
2019-03-23T18:06:57.541Z,1.97
2019-03-23T18:09:25.005Z,1.97
2019-03-23T18:11:53.232Z,2.10
2019-03-23T18:14:20.740Z,2.23
2019-03-23T18:16:48.198Z,1.70
2019-03-23T18:19:15.779Z,2.33
2019-03-23T18:21:43.321Z,2.33
2019-03-23T18:24:10.805Z,1.90
2019-03-23T18:26:38.261Z,1.77
2019-03-23T18:29:05.738Z,2.20
2019-03-23T18:31:34.009Z,1.60
2019-03-23T18:34:01.473Z,2.13
2019-03-23T18:36:28.934Z,2.30
2019-03-23T18:38:56.416Z,2.57
2019-03-23T18:41:24.676Z,2.10
2019-03-23T18:43:52.487Z,2.40
2019-03-23T18:46:20.095Z,2.40
2019-03-23T18:48:47.556Z,1.87
2019-03-23T18:51:15.133Z,2.47
2019-03-23T18:53:42.596Z,2.50
2019-03-23T18:56:10.138Z,2.17
2019-03-23T18:58:37.585Z,2.13
2019-03-23T19:01:05.096Z,2.40
2019-03-23T19:03:32.541Z,1.90
2019-03-23T19:06:00.006Z,2.33
2019-03-23T19:08:27.568Z,1.93
2019-03-23T19:10:55.038Z,2.57
2019-03-23T19:13:22.597Z,2.60
2019-03-23T19:15:50.051Z,2.57
2019-03-23T19:18:19.025Z,2.28
2019-03-23T19:20:46.520Z,2.17
2019-03-23T19:23:14.015Z,2.20
2019-03-23T19:25:42.346Z,2.03
2019-03-23T19:28:09.926Z,2.40
2019-03-23T19:30:38.523Z,2.53
2019-03-23T19:33:06.387Z,2.20
2019-03-23T19:35:33.500Z,2.43
2019-03-23T19:38:01.029Z,2.30
2019-03-23T19:40:28.558Z,2.27
2019-03-23T19:42:56.026Z,2.20
2019-03-23T19:45:23.514Z,2.30
2019-03-23T19:47:51.748Z,2.00
2019-03-23T19:50:19.238Z,2.50
2019-03-23T19:52:46.709Z,2.17
2019-03-23T19:55:14.939Z,2.20
2019-03-23T19:57:42.404Z,2.50
2019-03-23T20:00:09.878Z,2.63
2019-03-23T20:02:38.357Z,2.53
2019-03-23T20:05:05.828Z,2.20
2019-03-23T20:07:33.562Z,2.63
2019-03-23T20:10:01.549Z,2.90
2019-03-23T20:12:29.009Z,2.43
2019-03-23T20:14:56.489Z,2.80
2019-03-23T20:17:24.056Z,2.50
2019-03-23T20:19:51.507Z,2.70
2019-03-23T20:22:18.974Z,2.70
2019-03-23T20:24:46.435Z,2.40
2019-03-23T20:27:13.916Z,2.40
2019-03-23T20:29:41.393Z,2.90
2019-03-23T20:32:09.627Z,2.87
2019-03-23T20:34:37.089Z,2.70
2019-03-23T20:37:08.118Z,2.90
2019-03-23T20:39:33.192Z,2.57
2019-03-23T20:42:01.432Z,2.77
2019-03-23T20:44:28.909Z,3.03
2019-03-23T20:46:57.502Z,3.07
2019-03-23T20:49:24.967Z,2.67
2019-03-23T20:51:52.422Z,2.40
2019-03-23T20:54:19.996Z,2.80
2019-03-23T20:56:47.455Z,2.43
2019-03-23T20:59:14.921Z,3.00
2019-03-23T21:01:42.385Z,2.97
2019-03-23T21:04:09.853Z,3.17
2019-03-23T21:06:38.089Z,2.57
2019-03-23T21:09:05.551Z,2.67
2019-03-23T21:11:33.011Z,2.83
2019-03-23T21:14:00.499Z,2.77
2019-03-23T21:16:27.981Z,2.50
2019-03-23T21:18:56.230Z,2.83
2019-03-23T21:21:23.701Z,2.53
2019-03-23T21:23:52.189Z,2.70
2019-03-23T21:26:20.218Z,2.70
2019-03-23T21:28:47.732Z,3.17
2019-03-23T21:31:15.194Z,3.23
2019-03-23T21:33:42.658Z,2.87
2019-03-23T21:36:10.142Z,2.60
2019-03-23T21:38:38.365Z,2.77
2019-03-23T21:41:05.939Z,3.20
2019-03-23T21:43:33.434Z,3.17
2019-03-23T21:46:01.712Z,2.67
2019-03-23T21:48:29.976Z,3.13
2019-03-23T21:50:57.454Z,2.50
2019-03-23T21:53:24.923Z,2.50
2019-03-23T21:55:53.183Z,3.40
2019-03-23T21:58:20.856Z,3.00
2019-03-23T22:00:49.110Z,3.10
2019-03-23T22:03:19.285Z,3.27
2019-03-23T22:05:46.883Z,2.87
2019-03-23T22:08:14.373Z,2.80
2019-03-23T22:10:43.754Z,2.50
2019-03-23T22:13:11.259Z,2.83
2019-03-23T22:15:38.731Z,2.73
2019-03-23T22:18:06.984Z,3.30
2019-03-23T22:20:35.974Z,3.53
2019-03-23T22:23:03.554Z,2.50
2019-03-23T22:25:31.064Z,2.43
2019-03-23T22:27:58.686Z,2.80
2019-03-23T22:30:26.143Z,2.47
2019-03-23T22:32:53.737Z,2.70
2019-03-23T22:35:22.705Z,2.57
2019-03-23T22:37:50.273Z,2.50
2019-03-23T22:40:17.835Z,2.90
2019-03-23T22:42:45.290Z,2.80
2019-03-23T22:45:12.855Z,2.73
2019-03-23T22:47:40.309Z,3.03
2019-03-23T22:50:07.889Z,3.00
2019-03-23T22:52:35.352Z,3.00
2019-03-23T22:55:02.814Z,3.97
2019-03-23T22:57:30.374Z,2.70
2019-03-23T22:59:57.847Z,3.23
2019-03-23T23:02:25.370Z,3.30
2019-03-23T23:04:52.834Z,2.47
2019-03-23T23:07:20.413Z,3.17
2019-03-23T23:09:47.871Z,3.13
2019-03-23T23:12:16.471Z,3.10
2019-03-23T23:14:43.938Z,3.30
2019-03-23T23:17:11.409Z,3.20
2019-03-23T23:19:38.948Z,2.87
2019-03-23T23:22:06.407Z,2.60
2019-03-23T23:24:33.881Z,3.00
2019-03-23T23:27:01.391Z,2.90
2019-03-23T23:29:29.221Z,2.70
2019-03-23T23:31:56.320Z,2.73
2019-03-23T23:34:23.790Z,2.57
2019-03-23T23:36:51.345Z,2.60
2019-03-23T23:39:18.806Z,2.33
2019-03-23T23:41:46.265Z,2.30
2019-03-23T23:44:13.749Z,2.50
2019-03-23T23:46:41.247Z,2.53
2019-03-23T23:49:09.482Z,3.07
2019-03-23T23:51:38.135Z,2.50
2019-03-23T23:54:06.393Z,2.90
2019-03-23T23:56:33.886Z,2.77
2019-03-23T23:59:02.110Z,3.07
